createdAt,value
2023-04-24T00:00:13.281Z,12.71
2023-04-24T00:02:41.449Z,12.84
2023-04-24T00:05:10.937Z,12.89
2023-04-24T00:07:38.689Z,12.91
2023-04-24T00:10:07.251Z,12.86
2023-04-24T00:12:35.297Z,12.89
2023-04-24T00:15:03.100Z,12.81
2023-04-24T00:17:31.507Z,12.71
2023-04-24T00:20:00.162Z,12.74
2023-04-24T00:22:30.009Z,12.78
2023-04-24T00:24:57.787Z,12.77
2023-04-24T00:27:25.753Z,12.75
2023-04-24T00:29:53.444Z,12.72
2023-04-24T00:32:21.233Z,12.66
2023-04-24T00:34:49.073Z,12.59
2023-04-24T00:37:17.177Z,12.74
2023-04-24T00:39:46.202Z,12.73
2023-04-24T00:42:14.064Z,12.64
2023-04-24T00:44:41.881Z,12.78
2023-04-24T00:47:09.707Z,12.89
2023-04-24T00:49:37.451Z,12.73
2023-04-24T00:52:08.445Z,12.65
2023-04-24T00:54:36.103Z,12.60
2023-04-24T00:57:05.977Z,12.54
2023-04-24T00:59:34.164Z,12.67
2023-04-24T01:02:01.950Z,12.65
2023-04-24T01:04:30.519Z,12.58
2023-04-24T01:06:58.959Z,12.64
2023-04-24T01:09:27.157Z,12.62
2023-04-24T01:11:54.984Z,12.70
2023-04-24T01:14:25.677Z,12.62
2023-04-24T01:16:53.210Z,12.61
2023-04-24T01:19:22.031Z,12.67
2023-04-24T01:21:52.823Z,12.62
2023-04-24T01:24:23.266Z,12.54
2023-04-24T01:26:50.915Z,12.44
2023-04-24T01:29:18.517Z,12.47
2023-04-24T01:31:46.613Z,12.41
2023-04-24T01:34:18.097Z,12.33
2023-04-24T01:36:47.822Z,12.33
2023-04-24T01:39:16.609Z,12.40
2023-04-24T01:41:45.590Z,12.34
2023-04-24T01:44:13.653Z,12.43
2023-04-24T01:46:41.439Z,12.39
2023-04-24T01:49:09.112Z,12.40
2023-04-24T01:51:36.894Z,12.44
2023-04-24T01:54:06.264Z,12.45
2023-04-24T01:56:35.888Z,12.40
2023-04-24T01:59:05.472Z,12.48
2023-04-24T02:01:37.909Z,12.39
2023-04-24T02:04:05.986Z,12.43
2023-04-24T02:06:33.871Z,12.39
2023-04-24T02:09:01.857Z,12.36
2023-04-24T02:11:30.488Z,12.33
2023-04-24T02:13:58.197Z,12.37
2023-04-24T02:16:28.338Z,12.35
2023-04-24T02:18:56.336Z,12.41
2023-04-24T02:21:23.917Z,12.39
2023-04-24T02:23:51.562Z,12.45
2023-04-24T02:26:19.504Z,12.33
2023-04-24T02:28:47.179Z,12.36
2023-04-24T02:31:14.953Z,12.31
2023-04-24T02:33:43.927Z,12.28
2023-04-24T02:36:12.712Z,12.30
2023-04-24T02:38:40.314Z,12.13
2023-04-24T02:41:08.320Z,11.94
2023-04-24T02:43:35.892Z,11.89
2023-04-24T02:46:06.328Z,11.81
2023-04-24T02:48:34.067Z,11.78
2023-04-24T02:51:03.381Z,11.70
2023-04-24T02:53:31.881Z,11.80
2023-04-24T02:55:59.752Z,11.83
2023-04-24T02:58:27.330Z,11.74
2023-04-24T03:00:56.248Z,11.73
2023-04-24T03:03:24.808Z,11.65
2023-04-24T03:05:52.701Z,11.73
2023-04-24T03:08:21.729Z,11.86
2023-04-24T03:10:49.345Z,11.81
2023-04-24T03:13:17.580Z,11.79
2023-04-24T03:15:45.950Z,11.91
2023-04-24T03:18:13.587Z,11.93
2023-04-24T03:20:41.333Z,11.87
2023-04-24T03:23:09.049Z,11.84
2023-04-24T03:25:38.009Z,11.84
2023-04-24T03:28:05.751Z,11.75
2023-04-24T03:30:33.368Z,11.81
2023-04-24T03:33:01.251Z,11.79
2023-04-24T03:35:28.960Z,11.72
2023-04-24T03:37:56.640Z,11.80
2023-04-24T03:40:24.342Z,11.75
2023-04-24T03:42:53.297Z,11.76
2023-04-24T03:45:21.141Z,11.78
2023-04-24T03:47:48.806Z,11.93
2023-04-24T03:50:16.550Z,11.91
2023-04-24T03:52:44.130Z,11.82
2023-04-24T03:55:14.318Z,11.76
2023-04-24T03:57:42.221Z,11.74
2023-04-24T04:00:12.862Z,11.73
2023-04-24T04:02:40.572Z,11.71
2023-04-24T04:05:09.008Z,11.81
2023-04-24T04:07:36.710Z,11.78
2023-04-24T04:10:04.737Z,11.70
2023-04-24T04:12:32.364Z,11.63
2023-04-24T04:15:00.208Z,11.66
2023-04-24T04:17:29.184Z,11.73
2023-04-24T04:19:58.386Z,11.76
2023-04-24T04:22:25.945Z,11.79
2023-04-24T04:24:53.909Z,11.76
2023-04-24T04:27:22.373Z,11.68
2023-04-24T04:29:49.960Z,11.72
2023-04-24T04:32:18.007Z,11.69
2023-04-24T04:34:47.339Z,11.59
2023-04-24T04:37:15.604Z,11.53
2023-04-24T04:39:43.458Z,11.41
2023-04-24T04:42:11.455Z,11.41
2023-04-24T04:44:40.800Z,11.34
2023-04-24T04:47:09.714Z,11.31
2023-04-24T04:49:37.944Z,11.26
2023-04-24T04:52:06.975Z,11.30
2023-04-24T04:54:34.717Z,11.40
2023-04-24T04:57:04.322Z,11.36
2023-04-24T04:59:32.014Z,11.38
2023-04-24T05:01:59.569Z,11.36
2023-04-24T05:04:27.708Z,11.57
2023-04-24T05:06:55.484Z,12.59
2023-04-24T05:09:24.781Z,13.60
2023-04-24T05:11:52.546Z,14.09
2023-04-24T05:14:20.387Z,14.20
2023-04-24T05:16:48.161Z,14.53
2023-04-24T05:19:15.880Z,15.01
2023-04-24T05:21:43.554Z,15.69
2023-04-24T05:24:11.160Z,15.73
2023-04-24T05:26:40.092Z,15.84
2023-04-24T05:29:07.992Z,14.99
2023-04-24T05:31:35.788Z,14.97
2023-04-24T05:34:03.529Z,15.25
2023-04-24T05:36:31.839Z,15.22
2023-04-24T05:38:59.571Z,15.12
2023-04-24T05:41:27.284Z,15.68
2023-04-24T05:43:56.321Z,16.29
2023-04-24T05:46:24.171Z,16.53
2023-04-24T05:48:51.982Z,16.48
2023-04-24T05:51:19.770Z,16.83
2023-04-24T05:53:47.330Z,17.40
2023-04-24T05:56:15.109Z,17.57
2023-04-24T05:58:42.730Z,17.11
2023-04-24T06:01:11.872Z,17.21
2023-04-24T06:03:40.350Z,18.00
2023-04-24T06:06:08.380Z,18.99
2023-04-24T06:08:36.226Z,20.14
2023-04-24T06:11:04.751Z,19.58
2023-04-24T06:13:32.545Z,19.18
2023-04-24T06:16:00.223Z,18.10
2023-04-24T06:18:29.342Z,16.48
2023-04-24T06:20:57.082Z,16.92
2023-04-24T06:23:41.105Z,16.91
2023-04-24T06:26:27.661Z,16.57
2023-04-24T06:29:01.728Z,16.21
2023-04-24T06:31:29.740Z,16.05
2023-04-24T06:34:00.977Z,16.92
2023-04-24T06:36:29.283Z,17.97
2023-04-24T06:38:59.849Z,18.86
2023-04-24T06:41:28.373Z,19.07
2023-04-24T06:44:02.101Z,18.79
2023-04-24T06:46:30.802Z,18.13
2023-04-24T06:49:03.719Z,18.23
2023-04-24T06:51:48.676Z,18.04
2023-04-24T06:54:16.596Z,17.69
2023-04-24T06:59:36.951Z,17.00
2023-04-24T07:02:08.661Z,16.72
2023-04-24T07:04:37.779Z,17.10
2023-04-24T07:07:06.733Z,16.89
2023-04-24T07:09:36.303Z,17.77
2023-04-24T07:12:04.068Z,18.30
2023-04-24T07:14:31.748Z,18.90
2023-04-24T07:16:59.718Z,19.36
2023-04-24T07:19:27.365Z,20.00
2023-04-24T07:21:56.851Z,20.79
2023-04-24T07:24:26.710Z,21.31
2023-04-24T07:26:55.518Z,21.59
2023-04-24T07:29:23.154Z,21.41
2023-04-24T07:31:50.956Z,21.53
2023-04-24T07:34:24.572Z,20.67
2023-04-24T07:36:52.467Z,20.92
2023-04-24T07:39:21.977Z,21.10
2023-04-24T07:41:49.612Z,20.83
2023-04-24T07:44:17.328Z,18.96
2023-04-24T07:46:45.234Z,18.79
2023-04-24T07:49:14.088Z,18.37
2023-04-24T07:51:43.144Z,18.09
2023-04-24T07:54:12.759Z,19.19
2023-04-24T07:56:43.988Z,20.47
2023-04-24T07:59:12.824Z,19.77
2023-04-24T08:01:40.557Z,19.26
2023-04-24T08:04:08.844Z,19.23
2023-04-24T08:06:36.980Z,17.67
2023-04-24T08:09:05.377Z,16.45
2023-04-24T08:11:34.781Z,15.66
2023-04-24T08:14:03.811Z,15.79
2023-04-24T08:16:31.586Z,15.83
2023-04-24T08:18:59.560Z,16.78
2023-04-24T08:21:28.168Z,16.77
2023-04-24T08:23:55.858Z,17.99
2023-04-24T08:26:23.527Z,19.04
2023-04-24T08:28:51.566Z,19.11
2023-04-24T08:31:21.568Z,18.59
2023-04-24T08:33:49.621Z,19.38
2023-04-24T08:36:17.263Z,20.44
2023-04-24T08:38:47.333Z,19.94
2023-04-24T08:41:16.834Z,19.69
2023-04-24T08:43:44.844Z,19.41
2023-04-24T08:46:14.814Z,18.39
2023-04-24T08:48:44.352Z,17.89
2023-04-24T08:51:12.343Z,16.83
2023-04-24T08:53:40.286Z,16.58
2023-04-24T08:56:08.759Z,16.00
2023-04-24T08:58:37.690Z,15.26
2023-04-24T09:01:06.643Z,15.04
2023-04-24T09:03:35.422Z,14.66
2023-04-24T09:06:04.858Z,14.40
2023-04-24T09:08:33.113Z,14.23
2023-04-24T09:11:03.341Z,14.24
2023-04-24T09:13:32.127Z,14.15
2023-04-24T09:16:01.284Z,13.76
2023-04-24T09:18:29.169Z,13.62
2023-04-24T09:21:01.159Z,13.41
2023-04-24T09:23:31.434Z,13.59
2023-04-24T09:26:01.031Z,13.65
2023-04-24T09:28:34.216Z,13.85
2023-04-24T09:31:12.508Z,14.06
2023-04-24T09:33:40.286Z,14.42
2023-04-24T09:36:08.177Z,14.26
2023-04-24T09:38:38.620Z,14.38
2023-04-24T09:41:07.890Z,13.73
2023-04-24T09:43:36.445Z,13.55
2023-04-24T09:46:08.360Z,13.46
2023-04-24T09:48:37.268Z,13.29
2023-04-24T09:51:07.953Z,13.18
2023-04-24T09:53:37.033Z,13.27
2023-04-24T09:56:08.781Z,13.15
2023-04-24T09:58:37.042Z,13.31
2023-04-24T10:01:05.501Z,13.27
2023-04-24T10:03:34.290Z,13.27
2023-04-24T10:06:04.439Z,13.30
2023-04-24T10:08:37.718Z,13.36
2023-04-24T10:11:05.748Z,13.46
2023-04-24T10:13:34.817Z,13.69
2023-04-24T10:16:03.032Z,13.68
2023-04-24T10:18:31.843Z,13.96
2023-04-24T10:21:00.292Z,14.07
2023-04-24T10:23:28.061Z,13.83
2023-04-24T10:25:57.804Z,13.95
2023-04-24T10:28:29.035Z,13.64
2023-04-24T10:30:57.431Z,13.72
2023-04-24T10:33:26.124Z,13.55
2023-04-24T10:35:54.689Z,13.38
2023-04-24T10:38:26.898Z,13.06
2023-04-24T10:41:08.534Z,13.13
2023-04-24T10:43:36.252Z,12.99
2023-04-24T10:46:05.793Z,13.04
2023-04-24T10:48:34.356Z,13.14
2023-04-24T10:51:01.969Z,13.37
2023-04-24T10:53:31.310Z,13.25
2023-04-24T10:56:07.350Z,12.86
2023-04-24T10:58:41.174Z,12.61
2023-04-24T11:01:09.280Z,12.75
2023-04-24T11:03:38.481Z,13.21
2023-04-24T11:06:07.711Z,13.22
2023-04-24T11:08:39.981Z,13.81
2023-04-24T11:11:13.607Z,14.69
2023-04-24T11:14:03.892Z,14.76
2023-04-24T11:16:34.725Z,15.10
2023-04-24T11:19:03.568Z,15.08
2023-04-24T11:21:34.354Z,15.43
2023-04-24T11:24:29.883Z,15.07
2023-04-24T11:27:02.522Z,15.48
2023-04-24T11:30:01.893Z,15.67
2023-04-24T11:32:31.367Z,15.86
2023-04-24T11:35:00.394Z,15.90
2023-04-24T11:37:29.792Z,16.01
2023-04-24T11:39:59.471Z,15.53
2023-04-24T11:42:30.463Z,15.74
2023-04-24T11:44:58.354Z,16.05
2023-04-24T11:47:36.898Z,15.99
2023-04-24T11:50:06.780Z,16.63
2023-04-24T11:52:38.541Z,17.51
2023-04-24T11:55:08.732Z,17.00
2023-04-24T11:57:37.874Z,16.33
2023-04-24T12:00:07.782Z,16.31
2023-04-24T12:02:38.211Z,16.33
2023-04-24T12:05:08.921Z,16.29
2023-04-24T12:07:43.691Z,16.40
2023-04-24T12:10:12.054Z,15.46
2023-04-24T12:12:40.922Z,15.28
2023-04-24T12:15:10.313Z,15.05
2023-04-24T12:17:38.828Z,14.97
2023-04-24T12:20:09.640Z,14.63
2023-04-24T12:22:48.231Z,14.46
2023-04-24T12:25:19.074Z,14.09
2023-04-24T12:27:48.974Z,13.49
2023-04-24T12:30:18.479Z,13.18
2023-04-24T12:32:49.267Z,13.29
2023-04-24T12:35:21.867Z,13.52
2023-04-24T12:37:49.761Z,14.14
2023-04-24T12:40:18.839Z,14.72
2023-04-24T12:42:49.666Z,15.18
2023-04-24T12:45:18.342Z,15.23
2023-04-24T12:47:47.404Z,15.45
2023-04-24T12:50:16.455Z,15.14
2023-04-24T12:52:45.221Z,15.10
2023-04-24T12:55:13.269Z,15.18
2023-04-24T12:57:41.888Z,14.96
2023-04-24T13:00:12.117Z,15.42
2023-04-24T13:02:40.360Z,15.65
2023-04-24T13:05:08.627Z,15.73
2023-04-24T13:07:36.349Z,15.90
2023-04-24T13:10:04.121Z,16.16
2023-04-24T13:12:31.882Z,17.12
2023-04-24T13:14:59.794Z,16.90
2023-04-24T13:17:28.920Z,16.64
2023-04-24T13:19:57.375Z,17.32
2023-04-24T13:22:25.995Z,16.96
2023-04-24T13:24:53.841Z,16.22
2023-04-24T13:27:21.907Z,16.19
2023-04-24T13:29:49.648Z,16.30
2023-04-24T13:32:17.569Z,15.78
2023-04-24T13:34:46.760Z,16.08
2023-04-24T13:37:14.406Z,15.77
2023-04-24T13:39:43.088Z,15.61
2023-04-24T13:42:10.804Z,14.92
2023-04-24T13:44:38.679Z,14.42
2023-04-24T13:47:06.711Z,14.21
2023-04-24T13:49:34.617Z,14.23
2023-04-24T13:52:04.471Z,13.90
2023-04-24T13:54:32.059Z,13.78
2023-04-24T13:56:59.994Z,14.11
2023-04-24T13:59:27.889Z,14.18
2023-04-24T14:01:55.772Z,14.38
2023-04-24T14:04:23.745Z,14.51
2023-04-24T14:06:52.002Z,14.81
2023-04-24T14:09:20.938Z,14.65
2023-04-24T14:11:48.700Z,15.09
2023-04-24T14:14:17.185Z,15.44
2023-04-24T14:16:44.914Z,15.80
2023-04-24T14:19:12.502Z,16.42
2023-04-24T14:21:40.278Z,16.65
2023-04-24T14:24:17.925Z,16.81
2023-04-24T14:26:48.215Z,16.89
2023-04-24T14:29:16.217Z,16.97
2023-04-24T14:31:44.116Z,17.09
2023-04-24T14:34:12.870Z,17.33
2023-04-24T14:36:41.075Z,17.31
2023-04-24T14:39:12.131Z,16.93
2023-04-24T14:41:47.292Z,16.38
2023-04-24T14:44:16.576Z,16.13
2023-04-24T14:47:00.303Z,15.84
2023-04-24T14:49:28.474Z,15.43
2023-04-24T14:51:56.437Z,15.23
2023-04-24T14:54:24.841Z,14.87
2023-04-24T14:56:52.687Z,14.70
2023-04-24T14:59:21.735Z,14.60
2023-04-24T15:01:49.579Z,14.66
2023-04-24T15:04:17.894Z,14.86
2023-04-24T15:06:48.013Z,15.12
2023-04-24T15:09:15.776Z,15.16
2023-04-24T15:11:43.901Z,15.45
2023-04-24T15:14:12.332Z,15.48
2023-04-24T15:16:41.708Z,15.32
2023-04-24T15:19:10.174Z,15.36
2023-04-24T15:21:38.753Z,15.09
2023-04-24T15:24:07.025Z,14.75
2023-04-24T15:26:34.899Z,14.75
2023-04-24T15:29:02.694Z,14.51
2023-04-24T15:31:30.935Z,14.64
2023-04-24T15:34:00.011Z,14.52
2023-04-24T15:36:29.488Z,14.73
2023-04-24T15:38:57.044Z,14.80
2023-04-24T15:41:24.755Z,14.80
2023-04-24T15:43:52.469Z,14.67
2023-04-24T15:46:20.100Z,14.70
2023-04-24T15:48:47.790Z,14.60
2023-04-24T15:51:16.886Z,14.71
2023-04-24T15:53:44.549Z,14.84
2023-04-24T15:56:12.260Z,14.70
2023-04-24T15:58:39.998Z,14.73
2023-04-24T16:01:07.821Z,14.77
2023-04-24T16:03:36.052Z,14.75
2023-04-24T16:06:04.127Z,14.74
2023-04-24T16:08:33.036Z,14.73
2023-04-24T16:11:00.660Z,14.80
2023-04-24T16:13:29.049Z,14.73
2023-04-24T16:15:56.794Z,14.76
2023-04-24T16:18:24.544Z,14.82
2023-04-24T16:20:52.311Z,14.89
2023-04-24T16:23:19.886Z,14.67
2023-04-24T16:25:48.906Z,14.60
2023-04-24T16:28:17.004Z,14.48
2023-04-24T16:30:44.806Z,14.56
2023-04-24T16:33:12.477Z,14.55
2023-04-24T16:35:47.770Z,14.57
2023-04-24T16:38:19.392Z,14.48
2023-04-24T16:41:11.221Z,14.53
2023-04-24T16:43:39.261Z,14.44
2023-04-24T16:46:11.129Z,14.36
2023-04-24T16:48:40.064Z,14.45
2023-04-24T16:51:07.805Z,14.55
2023-04-24T16:53:36.008Z,14.48
2023-04-24T16:56:05.279Z,14.44
2023-04-24T16:58:33.061Z,14.38
2023-04-24T17:01:00.727Z,14.21
2023-04-24T17:03:28.671Z,14.20
2023-04-24T17:05:57.613Z,14.02
2023-04-24T17:08:25.628Z,14.15
2023-04-24T17:10:54.003Z,14.08
2023-04-24T17:13:22.924Z,14.05
2023-04-24T17:15:50.718Z,14.10
2023-04-24T17:18:18.759Z,14.33
2023-04-24T17:20:46.347Z,14.09
2023-04-24T17:23:16.743Z,14.08
2023-04-24T17:25:44.823Z,14.03
2023-04-24T17:28:21.526Z,13.94
2023-04-24T17:30:50.841Z,14.07
2023-04-24T17:33:18.608Z,14.04
2023-04-24T17:35:47.997Z,13.96
2023-04-24T17:38:16.131Z,13.93
2023-04-24T17:40:44.626Z,13.85
2023-04-24T17:43:12.542Z,13.72
2023-04-24T17:45:40.639Z,13.70
2023-04-24T17:48:09.726Z,13.69
2023-04-24T17:50:37.500Z,13.54
2023-04-24T17:53:05.265Z,13.50
2023-04-24T17:55:34.353Z,13.38
2023-04-24T17:58:03.009Z,13.25
2023-04-24T18:00:31.542Z,13.10
2023-04-24T18:03:01.540Z,13.07
2023-04-24T18:05:34.911Z,13.22
2023-04-24T18:08:06.098Z,13.29
2023-04-24T18:10:36.360Z,13.22
2023-04-24T18:13:09.528Z,13.19
2023-04-24T18:15:42.531Z,13.04
2023-04-24T18:18:11.543Z,13.02
2023-04-24T18:20:40.718Z,12.99
2023-04-24T18:23:10.448Z,12.99
2023-04-24T18:25:41.156Z,12.82
2023-04-24T18:28:08.919Z,12.60
2023-04-24T18:30:36.884Z,12.40
2023-04-24T18:33:05.614Z,12.21
2023-04-24T18:35:34.954Z,12.18
2023-04-24T18:38:05.757Z,12.33
2023-04-24T18:40:35.296Z,12.32
2023-04-24T18:43:05.488Z,12.22
2023-04-24T18:45:33.544Z,12.21
2023-04-24T18:48:01.475Z,12.16
2023-04-24T18:50:31.769Z,12.25
2023-04-24T18:52:59.666Z,12.28
2023-04-24T18:55:28.786Z,12.23
2023-04-24T18:57:56.483Z,12.22
2023-04-24T19:00:24.161Z,12.31
2023-04-24T19:02:54.712Z,12.09
2023-04-24T19:05:22.430Z,12.02
2023-04-24T19:07:50.688Z,12.05
2023-04-24T19:10:18.496Z,12.08
2023-04-24T19:12:56.381Z,12.04
2023-04-24T19:15:24.581Z,11.86
2023-04-24T19:17:52.561Z,11.88
2023-04-24T19:20:20.768Z,11.91
2023-04-24T19:22:48.643Z,11.79
2023-04-24T19:25:16.851Z,11.81
2023-04-24T19:27:44.707Z,11.53
2023-04-24T19:30:14.398Z,11.31
2023-04-24T19:32:48.057Z,11.14
2023-04-24T19:35:19.045Z,11.02
2023-04-24T19:37:48.600Z,10.88
2023-04-24T19:40:16.463Z,10.86
2023-04-24T19:42:44.828Z,10.79
2023-04-24T19:45:14.371Z,10.77
2023-04-24T19:47:43.722Z,10.86
2023-04-24T19:50:11.854Z,10.78
2023-04-24T19:52:39.766Z,10.71
2023-04-24T19:55:09.115Z,10.74
2023-04-24T19:57:37.406Z,10.72
2023-04-24T20:00:08.082Z,10.73
2023-04-24T20:02:41.349Z,10.82
2023-04-24T20:05:10.823Z,10.88
2023-04-24T20:07:38.594Z,10.72
2023-04-24T20:10:08.398Z,10.78
2023-04-24T20:12:36.363Z,10.77
2023-04-24T20:15:04.794Z,10.79
2023-04-24T20:17:32.466Z,10.75
2023-04-24T20:20:01.508Z,10.64
2023-04-24T20:22:29.138Z,10.62
2023-04-24T20:24:56.869Z,10.68
2023-04-24T20:27:24.582Z,10.63
2023-04-24T20:29:52.258Z,10.64
2023-04-24T20:32:21.007Z,10.51
2023-04-24T20:34:48.730Z,10.68
2023-04-24T20:37:17.649Z,10.67
2023-04-24T20:39:46.236Z,10.62
2023-04-24T20:42:13.904Z,10.70
2023-04-24T20:44:41.524Z,10.65
2023-04-24T20:47:09.866Z,10.46
2023-04-24T20:49:37.586Z,10.40
2023-04-24T20:52:05.320Z,10.35
2023-04-24T20:54:34.347Z,10.32
2023-04-24T20:57:03.743Z,10.46
2023-04-24T20:59:31.619Z,10.66
2023-04-24T21:01:59.254Z,10.66
2023-04-24T21:04:26.898Z,10.65
2023-04-24T21:06:54.795Z,10.79
2023-04-24T21:09:22.469Z,10.92
2023-04-24T21:11:51.409Z,10.84
2023-04-24T21:14:19.018Z,10.79
2023-04-24T21:16:46.986Z,10.82
2023-04-24T21:19:14.613Z,10.65
2023-04-24T21:21:42.550Z,10.58
2023-04-24T21:24:10.273Z,10.64
2023-04-24T21:26:37.941Z,10.59
2023-04-24T21:29:09.715Z,10.57
2023-04-24T21:31:37.853Z,10.65
2023-04-24T21:34:05.842Z,10.61
2023-04-24T21:36:33.527Z,10.69
2023-04-24T21:39:01.304Z,10.68
2023-04-24T21:41:29.249Z,10.64
2023-04-24T21:43:57.083Z,10.50
2023-04-24T21:46:26.410Z,10.53
2023-04-24T21:48:54.146Z,10.58
2023-04-24T21:51:21.850Z,10.50
2023-04-24T21:53:49.962Z,10.53
2023-04-24T21:56:18.184Z,10.54
2023-04-24T21:58:46.858Z,10.45
2023-04-24T22:01:15.609Z,10.52
2023-04-24T22:03:44.810Z,10.53
2023-04-24T22:06:12.515Z,10.53
2023-04-24T22:08:40.129Z,10.51
2023-04-24T22:11:19.908Z,10.47
2023-04-24T22:13:54.135Z,10.30
2023-04-24T22:16:23.671Z,10.33
2023-04-24T22:18:55.164Z,10.51
2023-04-24T22:21:23.497Z,10.37
2023-04-24T22:23:51.561Z,10.26
2023-04-24T22:26:19.604Z,10.27
2023-04-24T22:28:48.310Z,10.34
2023-04-24T22:31:16.457Z,10.39
2023-04-24T22:33:47.329Z,10.37
2023-04-24T22:36:16.909Z,10.27
2023-04-24T22:38:44.599Z,10.25
2023-04-24T22:41:12.386Z,10.23
2023-04-24T22:43:40.233Z,10.33
2023-04-24T22:46:07.820Z,10.17
2023-04-24T22:48:36.135Z,10.19
2023-04-24T22:51:03.774Z,10.17
2023-04-24T22:53:32.817Z,10.15
2023-04-24T22:56:01.069Z,10.18
2023-04-24T22:58:29.417Z,10.11
2023-04-24T23:00:57.059Z,10.06
2023-04-24T23:03:25.217Z,10.11
2023-04-24T23:05:52.907Z,10.23
2023-04-24T23:08:20.444Z,10.12
2023-04-24T23:10:49.611Z,9.99
2023-04-24T23:13:17.376Z,9.94
2023-04-24T23:15:45.281Z,10.02
2023-04-24T23:18:12.866Z,10.02
2023-04-24T23:20:40.719Z,9.95
2023-04-24T23:23:08.280Z,10.15
2023-04-24T23:25:35.834Z,10.05
2023-04-24T23:28:05.090Z,10.05
2023-04-24T23:30:32.942Z,10.03
2023-04-24T23:33:00.560Z,9.94
2023-04-24T23:35:28.377Z,9.93
2023-04-24T23:37:56.627Z,9.82
2023-04-24T23:40:24.563Z,9.75
2023-04-24T23:43:03.635Z,9.71
2023-04-24T23:45:36.019Z,9.67
2023-04-24T23:48:04.600Z,9.83
2023-04-24T23:50:32.478Z,9.86
2023-04-24T23:53:00.191Z,9.99
2023-04-24T23:55:27.992Z,10.05
2023-04-24T23:57:55.592Z,9.91
